Time;durP1;ratioP1;P1;durP2;ratioP2;P2;SDS_P1;SDS_P2;PMS_P1;PMS_P2;Temp;Humidity;BMP_temperature;BMP_pressure;BME280_temperature;BME280_humidity;BME280_pressure;Samples;Min_cycle;Max_cycle;Signal;HPM_P1;HPM_P2
2024/01/04 00:00:16;;;;;;;9.63;6.53;;;;;;;7.67;62.79;98134.63;4922041;29;20031;-70
2024/01/04 00:02:45;;;;;;;9.27;6.00;;;;;;;7.65;62.91;98127.88;4921717;29;20028;-70
2024/01/04 00:05:10;;;;;;;;;;;;;;;7.68;62.31;98138.88;4922181;29;20043;-68
2024/01/04 00:07:35;;;;;;;7.45;5.30;;;;;;;7.64;62.73;98132.25;4921786;29;19911;-70
2024/01/04 00:10:01;;;;;;;8.90;5.40;;;;;;;7.64;63.10;98127.06;4906363;29;20038;-70
2024/01/04 00:12:26;;;;;;;6.70;4.90;;;;;;;7.66;62.85;98134.75;4905985;29;20028;-70
2024/01/04 00:14:52;;;;;;;6.53;4.35;;;;;;;7.66;62.51;98124.34;4938673;29;20043;-71
2024/01/04 00:17:17;;;;;;;6.07;4.50;;;;;;;7.63;62.60;98125.41;4905817;29;20531;-71
2024/01/04 00:19:43;;;;;;;6.15;4.05;;;;;;;7.62;62.80;98118.53;4937476;29;20036;-70
2024/01/04 00:22:08;;;;;;;5.85;4.10;;;;;;;7.67;62.74;98126.84;4921279;29;20040;-68
2024/01/04 00:24:34;;;;;;;7.13;3.85;;;;;;;7.62;62.83;98115.94;4921433;29;20062;-69
2024/01/04 00:26:59;;;;;;;5.88;3.47;;;;;;;7.63;62.96;98112.41;4921585;29;20038;-69
2024/01/04 00:29:25;;;;;;;4.93;3.55;;;;;;;7.63;63.12;98120.19;4921301;29;20044;-69
2024/01/04 00:31:50;;;;;;;5.70;3.35;;;;;;;7.68;63.18;98133.66;4921040;29;20170;-68
2024/01/04 00:34:16;;;;;;;4.43;3.05;;;;;;;7.67;63.25;98129.44;4921411;29;20035;-70
2024/01/04 00:36:41;;;;;;;5.00;3.20;;;;;;;7.67;62.80;98126.84;4921400;29;20070;-69
2024/01/04 00:39:07;;;;;;;5.22;2.83;;;;;;;7.68;62.93;98125.06;4921152;29;20043;-70
2024/01/04 00:41:32;;;;;;;4.72;3.03;;;;;;;7.67;63.03;98120.78;4921538;29;20032;-69
2024/01/04 00:43:58;;;;;;;4.22;2.60;;;;;;;7.68;63.01;98130.25;4905302;29;20110;-70
2024/01/04 00:46:24;;;;;;;4.95;2.72;;;;;;;7.68;63.19;98130.25;4921166;29;20032;-71
2024/01/04 00:48:49;;;;;;;4.82;2.90;;;;;;;7.67;63.20;98126.84;4921328;29;20518;-69
2024/01/04 00:51:15;;;;;;;6.15;2.88;;;;;;;7.67;63.08;98128.59;4905230;29;20503;-69
2024/01/04 00:53:41;;;;;;;3.47;2.30;;;;;;;7.67;63.23;98131.19;4937872;29;20404;-68
2024/01/04 00:56:07;;;;;;;4.35;2.60;;;;;;;7.61;63.46;98119.50;4920954;29;20522;-69
2024/01/04 00:58:32;;;;;;;4.45;2.58;;;;;;;7.67;63.29;98118.19;4905171;29;20036;-70
2024/01/04 01:00:58;;;;;;;4.00;2.58;;;;;;;7.65;63.07;98114.88;4904992;29;20365;-70
2024/01/04 01:03:23;;;;;;;4.72;2.60;;;;;;;7.68;62.86;98114.66;4904624;29;20047;-70
2024/01/04 01:05:49;;;;;;;4.60;2.85;;;;;;;7.66;63.18;98103.56;4920377;29;20040;-70
2024/01/04 01:08:15;;;;;;;3.65;2.50;;;;;;;7.67;63.03;98106.06;4904858;29;20042;-70
2024/01/04 01:10:41;;;;;;;4.55;2.88;;;;;;;7.67;63.14;98108.66;4937717;29;20032;-70
2024/01/04 01:13:07;;;;;;;4.50;2.60;;;;;;;7.65;63.35;98100.13;4936575;29;20042;-69
2024/01/04 01:15:32;;;;;;;4.85;2.67;;;;;;;7.65;63.14;98100.13;4920648;29;20039;-70
2024/01/04 01:18:00;;;;;;;5.88;2.45;;;;;;;7.68;63.30;98114.66;4904876;29;20107;-68
2024/01/04 01:20:25;;;;;;;4.50;2.70;;;;;;;7.68;63.32;98114.66;4921015;29;20110;-70
2024/01/04 01:22:51;;;;;;;5.18;2.40;;;;;;;7.63;63.34;98109.81;4920345;29;20072;-71
2024/01/04 01:25:16;;;;;;;4.18;2.60;;;;;;;7.68;63.60;98109.47;4920405;29;20054;-70
2024/01/04 01:27:42;;;;;;;5.05;2.72;;;;;;;7.64;63.66;98105.44;4936310;29;20032;-68
2024/01/04 01:30:08;;;;;;;4.32;2.42;;;;;;;7.61;63.59;98099.53;4920138;29;20035;-70
2024/01/04 01:32:33;;;;;;;6.28;2.50;;;;;;;7.66;63.32;98112.19;4919874;29;20102;-70
2024/01/04 01:34:59;;;;;;;3.88;2.30;;;;;;;7.65;63.77;98107.91;4904442;29;20043;-70
2024/01/04 01:37:24;;;;;;;4.40;2.10;;;;;;;7.65;63.55;98109.69;4904477;29;20430;-70
2024/01/04 01:39:50;;;;;;;3.40;1.95;;;;;;;7.65;63.62;98107.91;4936112;29;20039;-70
2024/01/04 01:42:17;;;;;;;4.03;2.35;;;;;;;7.60;63.60;98097.88;4920124;29;20419;-69
2024/01/04 01:44:42;;;;;;;5.35;2.33;;;;;;;7.64;63.88;98097.63;4920015;29;20102;-69
2024/01/04 01:47:08;;;;;;;2.47;1.83;;;;;;;7.64;63.66;98101.09;4919971;29;20505;-70
2024/01/04 01:49:33;;;;;;;2.58;1.75;;;;;;;7.65;63.66;98086.31;4936218;29;20032;-70
2024/01/04 01:51:59;;;;;;;3.33;1.90;;;;;;;7.60;63.65;98079.69;4919911;29;20083;-70
2024/01/04 01:54:24;;;;;;;4.15;1.92;;;;;;;7.62;63.93;98079.56;4904168;29;20130;-70
2024/01/04 01:56:50;;;;;;;3.00;2.05;;;;;;;7.67;63.74;98089.63;4919723;29;20048;-69
2024/01/04 01:59:16;;;;;;;3.15;2.00;;;;;;;7.67;63.71;98082.69;4920148;29;20035;-69
2024/01/04 02:01:41;;;;;;;2.50;1.77;;;;;;;7.68;64.12;98076.50;4904300;29;20027;-70
2024/01/04 02:04:07;;;;;;;5.03;1.80;;;;;;;7.69;64.17;98085.16;4919663;29;20551;-70
2024/01/04 02:06:32;;;;;;;3.22;2.08;;;;;;;7.64;63.91;98076.84;4903897;29;20031;-70
2024/01/04 02:08:58;;;;;;;3.17;1.73;;;;;;;7.64;63.99;98084.66;4919969;29;20036;-69
2024/01/04 02:11:23;;;;;;;3.22;1.90;;;;;;;7.67;63.87;98082.69;4919912;29;20043;-69
2024/01/04 02:13:49;;;;;;;3.75;1.63;;;;;;;7.67;63.98;98093.06;4919411;29;20043;-70
2024/01/04 02:16:14;;;;;;;2.83;1.60;;;;;;;7.61;63.64;98083.94;4935104;29;20032;-70
2024/01/04 02:18:40;;;;;;;3.13;1.83;;;;;;;7.67;63.85;98084.44;4903532;29;20039;-69
2024/01/04 02:21:06;;;;;;;2.83;1.73;;;;;;;7.67;63.88;98090.47;4919560;29;20036;-70
2024/01/04 02:23:31;;;;;;;2.45;1.52;;;;;;;7.63;63.65;98078.63;4903155;29;20048;-69
2024/01/04 02:25:57;;;;;;;2.92;1.80;;;;;;;7.68;64.28;98075.69;4919421;29;20046;-70
2024/01/04 02:28:22;;;;;;;2.53;1.60;;;;;;;7.64;64.04;98074.25;4919329;29;20054;-69
2024/01/04 02:30:48;;;;;;;2.40;1.60;;;;;;;7.64;64.01;98064.72;4919165;29;20039;-69
2024/01/04 02:33:13;;;;;;;2.70;1.80;;;;;;;7.65;63.83;98068.13;4919438;29;20426;-70
2024/01/04 02:35:39;;;;;;;2.65;1.75;;;;;;;7.68;64.13;98078.28;4919508;29;20095;-70
2024/01/04 02:38:04;;;;;;;2.05;1.50;;;;;;;7.68;64.20;98083.50;4903128;29;20498;-71
2024/01/04 02:40:30;;;;;;;2.17;1.50;;;;;;;7.67;64.14;98084.44;4919008;29;20170;-70
2024/01/04 02:42:55;;;;;;;3.25;1.50;;;;;;;7.67;64.39;98090.47;4919002;29;20087;-70
2024/01/04 02:45:21;;;;;;;2.80;1.52;;;;;;;7.66;63.76;98098.38;4919293;29;20472;-70
2024/01/04 02:47:47;;;;;;;4.45;2.63;;;;;;;7.64;63.97;98108.88;4903123;29;20038;-70
2024/01/04 02:50:13;;;;;;;10.55;8.02;;;;;;;7.60;63.46;98107.44;4927215;29;20040;-69
2024/01/04 02:52:38;;;;;;;25.33;19.75;;;;;;;7.51;62.05;98126.28;4918058;29;20040;-69
2024/01/04 02:55:04;;;;;;;26.55;21.90;;;;;;;7.31;63.00;98109.59;4934294;29;20115;-71
2024/01/04 02:57:29;;;;;;;29.65;24.50;;;;;;;7.30;62.40;98116.53;4918488;29;20476;-71
2024/01/04 02:59:55;;;;;;;29.23;24.70;;;;;;;7.25;61.99;98122.06;4902827;29;20027;-69
2024/01/04 03:02:20;;;;;;;28.42;24.35;;;;;;;7.22;61.89;98114.50;4918038;29;20612;-70
2024/01/04 03:04:46;;;;;;;28.67;24.35;;;;;;;7.15;61.56;98115.88;4918421;29;20091;-71
2024/01/04 03:07:12;;;;;;;30.33;25.38;;;;;;;7.14;62.11;98124.59;4934172;29;20051;-70
2024/01/04 03:09:37;;;;;;;28.27;24.50;;;;;;;7.07;61.55;98121.63;4918264;29;20055;-70
2024/01/04 03:12:03;;;;;;;26.98;22.48;;;;;;;7.05;61.64;98117.47;4901996;29;20039;-71
2024/01/04 03:14:29;;;;;;;27.70;23.05;;;;;;;7.00;61.71;98117.81;4918291;29;20159;-70
2024/01/04 03:16:54;;;;;;;24.88;21.85;;;;;;;6.98;61.50;98105.91;4918379;29;20055;-71
2024/01/04 03:19:20;;;;;;;25.70;21.88;;;;;;;6.94;60.88;98107.88;4902713;29;20027;-69
2024/01/04 03:21:45;;;;;;;22.92;20.17;;;;;;;6.90;61.42;98109.03;4917901;29;20052;-71
2024/01/04 03:24:11;;;;;;;25.27;20.77;;;;;;;6.84;61.03;98094.72;4918295;29;20055;-70
2024/01/04 03:26:36;;;;;;;26.02;19.92;;;;;;;6.82;61.08;98094.00;4934523;29;20031;-69
2024/01/04 03:29:02;;;;;;;24.33;20.50;;;;;;;6.83;61.21;98095.69;4933673;29;20035;-71
2024/01/04 03:31:27;;;;;;;23.80;20.25;;;;;;;6.76;61.35;98094.44;4918362;29;20039;-69
2024/01/04 03:33:53;;;;;;;25.42;20.95;;;;;;;6.76;61.22;98089.25;4902498;29;20032;-72
2024/01/04 03:36:19;;;;;;;24.05;20.08;;;;;;;6.81;61.04;98100.13;4918182;29;20032;-69
2024/01/04 03:38:45;;;;;;;23.20;19.20;;;;;;;6.79;61.68;98107.19;4902131;29;20051;-70
2024/01/04 03:41:11;;;;;;;22.90;19.20;;;;;;;6.81;61.45;98109.69;4902251;29;20039;-69
2024/01/04 03:43:36;;;;;;;26.20;18.77;;;;;;;6.76;61.41;98093.63;4918295;29;20036;-70
2024/01/04 03:46:05;;;;;;;22.23;18.73;;;;;;;6.81;61.49;98094.94;4918095;29;20447;-70
2024/01/04 03:48:30;;;;;;;;;;;;;;;6.81;61.20;98094.13;4902831;29;20042;-69
2024/01/04 03:50:56;;;;;;;21.08;17.08;;;;;;;6.79;61.92;98102.00;4918027;29;19911;-70
2024/01/04 03:53:21;;;;;;;20.20;16.40;;;;;;;6.74;61.50;98091.13;4918206;29;20027;-71
2024/01/04 03:55:47;;;;;;;19.95;16.17;;;;;;;6.77;61.92;98087.47;4901879;29;20558;-70
2024/01/04 03:58:12;;;;;;;20.33;16.25;;;;;;;6.82;61.93;98094.00;4901562;29;20123;-70
2024/01/04 04:00:37;;;;;;;16.90;14.23;;;;;;;6.84;61.66;98093.91;4918090;29;20048;-69
2024/01/04 04:03:03;;;;;;;19.88;15.50;;;;;;;6.85;61.82;98093.78;4918042;29;20027;-70
2024/01/04 04:05:29;;;;;;;18.00;15.02;;;;;;;6.87;62.11;98093.69;4917884;29;20114;-70
2024/01/04 04:07:54;;;;;;;18.92;14.55;;;;;;;6.89;61.98;98091.78;4907484;29;20092;-70
2024/01/04 04:10:20;;;;;;;16.50;14.13;;;;;;;6.90;62.40;98088.28;4928333;29;20506;-70
2024/01/04 04:12:45;;;;;;;19.67;13.82;;;;;;;6.92;62.30;98082.97;4917419;29;20040;-71
2024/01/04 04:15:11;;;;;;;16.83;13.70;;;;;;;6.93;62.27;98093.25;4917260;29;20131;-70
2024/01/04 04:17:36;;;;;;;16.48;12.95;;;;;;;6.95;62.08;98095.72;4917347;29;20032;-71
2024/01/04 04:20:02;;;;;;;15.90;13.27;;;;;;;6.93;62.19;98095.03;4901951;29;20031;-70
2024/01/04 04:22:27;;;;;;;15.52;12.63;;;;;;;6.94;62.27;98101.84;4917939;29;20114;-71
2024/01/04 04:24:53;;;;;;;15.95;12.70;;;;;;;6.95;62.13;98108.72;4917828;29;20056;-73
2024/01/04 04:27:18;;;;;;;16.88;12.98;;;;;;;6.95;62.62;98100.91;4886214;29;20091;-72
2024/01/04 04:29:44;;;;;;;14.77;12.13;;;;;;;6.95;62.42;98095.72;4933873;29;20411;-71
2024/01/04 04:32:09;;;;;;;14.75;11.75;;;;;;;6.95;62.09;98098.31;4917222;29;20028;-71
2024/01/04 04:34:35;;;;;;;17.80;11.25;;;;;;;6.96;62.40;98094.78;4917519;29;20032;-72
2024/01/04 04:37:01;;;;;;;13.13;10.02;;;;;;;7.13;67.27;98103.94;4886266;29;20479;-74
2024/01/04 04:39:26;;;;;;;14.95;9.32;;;;;;;7.30;73.38;98093.16;4917292;29;20043;-79
2024/01/04 04:41:52;;;;;;;19.23;9.73;;;;;;;7.78;78.83;98111.28;4919846;29;20040;-70
2024/01/04 04:44:17;;;;;;;13.23;8.82;;;;;;;7.77;74.03;98114.81;4937593;29;20043;-74
2024/01/04 04:46:43;;;;;;;12.00;8.35;;;;;;;7.75;71.83;98116.69;4904459;29;20090;-72
2024/01/04 04:49:08;;;;;;;11.85;8.02;;;;;;;7.70;70.45;98117.97;4936816;29;20038;-71
2024/01/04 04:51:34;;;;;;;15.77;8.35;;;;;;;7.66;69.46;98111.38;4936842;29;20047;-70
2024/01/04 04:53:59;;;;;;;11.82;8.18;;;;;;;7.60;68.48;98110.03;4920934;29;20039;-73
2024/01/04 04:56:25;;;;;;;10.80;8.25;;;;;;;7.50;67.93;98109.88;4920310;29;20044;-72
2024/01/04 04:58:50;;;;;;;11.20;8.73;;;;;;;7.51;67.35;98127.16;4936799;29;20122;-70
2024/01/04 05:01:16;;;;;;;12.15;8.75;;;;;;;7.47;66.98;98124.88;4920797;29;20083;-73
2024/01/04 05:03:41;;;;;;;13.05;9.50;;;;;;;7.39;69.15;98110.69;4920235;29;20040;-71
2024/01/04 05:06:08;;;;;;;12.35;9.30;;;;;;;7.43;68.44;98125.09;4936775;29;20066;-70
2024/01/04 05:08:34;;;;;;;11.40;9.20;;;;;;;7.38;67.94;98108.19;4920991;29;20390;-72
2024/01/04 05:10:59;;;;;;;11.80;10.00;;;;;;;7.38;67.38;98116.78;4920271;29;20044;-70
2024/01/04 05:13:25;;;;;;;14.55;10.05;;;;;;;7.34;67.00;98117.97;4936774;29;20072;-71
2024/01/04 05:15:50;;;;;;;12.63;10.43;;;;;;;7.30;66.52;98108.75;4920597;29;20131;-70
2024/01/04 05:18:16;;;;;;;15.90;10.50;;;;;;;7.28;66.56;98121.03;4918524;29;20039;-71
2024/01/04 05:20:41;;;;;;;14.93;11.30;;;;;;;7.20;66.48;98111.19;4902663;29;20034;-71
2024/01/04 05:23:07;;;;;;;17.20;10.88;;;;;;;7.20;66.33;98102.59;4902136;29;20047;-70
2024/01/04 05:25:33;;;;;;;15.10;11.73;;;;;;;7.14;66.38;98098.66;4934221;29;20115;-70
2024/01/04 05:27:59;;;;;;;14.80;12.00;;;;;;;7.16;66.21;98106.31;4933977;29;20040;-71
2024/01/04 05:30:24;;;;;;;14.65;11.95;;;;;;;7.16;65.69;98106.31;4902487;29;20050;-71
2024/01/04 05:32:50;;;;;;;13.55;11.52;;;;;;;7.14;66.15;98109.03;4935750;29;20510;-69
2024/01/04 05:35:15;;;;;;;16.25;12.27;;;;;;;7.14;65.84;98111.63;4904475;29;20048;-70
2024/01/04 05:37:41;;;;;;;15.73;12.93;;;;;;;7.11;65.77;98100.66;4936338;29;20039;-70
2024/01/04 05:40:09;;;;;;;15.90;11.95;;;;;;;7.16;65.48;98117.53;4904206;29;20028;-70
2024/01/04 05:42:35;;;;;;;15.75;12.05;;;;;;;7.17;65.51;98133.94;4936511;29;20039;-70
2024/01/04 05:45:01;;;;;;;14.05;12.35;;;;;;;7.14;65.41;98123.78;4936034;29;20110;-70
2024/01/04 05:47:27;;;;;;;13.65;12.02;;;;;;;7.19;65.69;98134.66;4937099;29;20047;-71
2024/01/04 05:49:52;;;;;;;13.90;11.85;;;;;;;7.20;65.50;98126.75;4937110;29;20091;-70
2024/01/04 05:52:18;;;;;;;13.35;11.18;;;;;;;7.24;65.62;98117.81;4903657;29;20491;-70
2024/01/04 05:54:43;;;;;;;12.52;10.25;;;;;;;7.32;65.16;98111.22;4919346;29;20044;-70
2024/01/04 05:57:09;;;;;;;12.80;10.98;;;;;;;7.41;64.93;98106.19;4919833;29;20054;-69
2024/01/04 05:59:34;;;;;;;13.07;10.85;;;;;;;7.56;64.51;98099.06;4935745;29;20039;-70
2024/01/04 06:02:00;;;;;;;14.38;10.95;;;;;;;7.93;63.79;98106.69;4919716;29;20039;-69
2024/01/04 06:04:25;;;;;;;11.15;9.95;;;;;;;8.38;62.98;98107.66;4919735;29;20585;-71
2024/01/04 06:06:53;;;;;;;12.07;9.90;;;;;;;8.92;61.49;98103.47;4935612;29;20028;-70
2024/01/04 06:09:20;;;;;;;12.55;9.63;;;;;;;9.56;60.46;98111.28;4935478;29;20055;-70
2024/01/04 06:11:46;;;;;;;10.82;9.50;;;;;;;10.22;59.38;98104.97;4919286;29;20400;-70
2024/01/04 06:14:12;;;;;;;10.65;8.85;;;;;;;10.75;58.35;98110.97;4936616;29;20024;-70
2024/01/04 06:16:38;;;;;;;10.23;8.00;;;;;;;11.14;56.77;98114.47;4935560;29;20110;-70
2024/01/04 06:19:03;;;;;;;7.90;7.10;;;;;;;11.79;55.13;98115.72;4919195;29;20051;-69
2024/01/04 06:21:29;;;;;;;10.60;6.50;;;;;;;11.99;54.79;98106.06;4936473;29;20074;-71
2024/01/04 06:23:54;;;;;;;7.65;6.50;;;;;;;12.25;54.09;98114.91;4934675;29;20495;-70
2024/01/04 06:26:20;;;;;;;6.38;5.68;;;;;;;13.26;51.90;98119.34;4936412;29;20031;-70
2024/01/04 06:28:46;;;;;;;6.35;5.25;;;;;;;14.02;50.24;98110.16;4919108;29;20066;-70
2024/01/04 06:31:12;;;;;;;5.43;4.85;;;;;;;14.62;48.81;98098.03;4935072;29;20036;-70
2024/01/04 06:33:37;;;;;;;5.65;4.47;;;;;;;16.00;46.33;98106.28;4935136;29;20028;-70
2024/01/04 06:36:03;;;;;;;5.20;3.95;;;;;;;16.97;44.20;98092.94;4935211;29;20036;-70
2024/01/04 06:38:29;;;;;;;4.95;3.80;;;;;;;16.85;43.95;98089.00;4934884;29;20452;-72
2024/01/04 06:40:57;;;;;;;3.92;3.50;;;;;;;17.69;42.73;98086.47;4934847;29;20099;-71
2024/01/04 06:43:23;;;;;;;4.28;3.17;;;;;;;18.35;41.25;98098.25;4935060;29;20028;-71
2024/01/04 06:45:49;;;;;;;4.35;3.10;;;;;;;18.95;46.32;98115.69;4935244;29;20024;-76
2024/01/04 06:48:14;;;;;;;3.70;3.00;;;;;;;19.13;44.29;98122.41;4935208;29;20039;-73
2024/01/04 06:50:40;;;;;;;7.53;4.90;;;;;;;19.74;38.70;98119.31;4936571;29;20032;-77
2024/01/04 06:53:06;;;;;;;6.93;3.30;;;;;;;20.50;40.44;98129.25;4936845;29;20087;-71
2024/01/04 06:55:32;;;;;;;7.22;4.90;;;;;;;21.26;38.13;98146.13;4937619;29;20031;-73
2024/01/04 06:57:57;;;;;;;10.93;6.78;;;;;;;20.64;38.65;98137.28;4918915;29;20035;-70
2024/01/04 07:00:23;;;;;;;18.67;11.27;;;;;;;20.45;37.94;98136.13;4918717;29;20139;-70
2024/01/04 07:02:48;;;;;;;20.25;12.18;;;;;;;20.20;37.92;98128.66;4902853;29;20030;-71
2024/01/04 07:05:14;;;;;;;23.55;13.93;;;;;;;20.06;37.55;98141.81;4902218;29;20041;-71
2024/01/04 07:07:39;;;;;;;26.40;17.98;;;;;;;19.45;37.85;98149.38;4934276;29;20094;-70
2024/01/04 07:10:05;;;;;;;18.85;14.48;;;;;;;18.85;39.83;98156.66;4902786;29;20028;-69
2024/01/04 07:12:31;;;;;;;17.92;13.93;;;;;;;18.42;40.39;98150.19;4902841;29;20066;-70
2024/01/04 07:14:57;;;;;;;21.23;16.65;;;;;;;18.07;40.47;98154.31;4934427;29;20028;-71
2024/01/04 07:17:22;;;;;;;23.63;17.95;;;;;;;17.54;41.27;98155.03;4935562;29;20106;-71
2024/01/04 07:19:48;;;;;;;26.77;19.30;;;;;;;16.99;42.11;98135.75;4934299;29;20043;-71
2024/01/04 07:22:15;;;;;;;32.67;20.50;;;;;;;16.64;42.71;98153.66;4934163;29;20502;-73
2024/01/04 07:24:41;;;;;;;26.20;19.70;;;;;;;16.38;42.86;98156.56;4933958;29;20062;-70
2024/01/04 07:27:07;;;;;;;29.13;20.23;;;;;;;16.16;43.09;98167.78;4918457;29;20443;-70
2024/01/04 07:29:32;;;;;;;26.95;19.10;;;;;;;15.97;43.50;98161.03;4901901;29;20134;-70
2024/01/04 07:31:58;;;;;;;22.77;18.35;;;;;;;15.88;43.42;98153.16;4918370;29;20201;-69
2024/01/04 07:34:23;;;;;;;21.88;17.27;;;;;;;15.79;43.31;98155.97;4902408;29;20494;-71
2024/01/04 07:36:50;;;;;;;22.70;17.55;;;;;;;15.75;43.12;98155.44;4902188;29;20040;-71
2024/01/04 07:39:15;;;;;;;12.52;8.38;;;;;;;16.27;53.73;98163.00;4902344;29;20426;-73
2024/01/04 07:41:42;;;;;;;13.27;7.50;;;;;;;16.42;51.44;98160.47;4934343;29;20032;-74
2024/01/04 07:44:08;;;;;;;11.45;8.82;;;;;;;16.38;49.89;98159.19;4918171;29;20046;-75
2024/01/04 07:46:34;;;;;;;14.35;9.20;;;;;;;16.27;48.96;98159.53;4934125;29;20027;-73
2024/01/04 07:48:59;;;;;;;14.40;9.55;;;;;;;16.24;48.47;98157.22;4918326;29;20031;-76
2024/01/04 07:51:24;;;;;;;12.52;9.57;;;;;;;16.14;48.30;98143.44;4917766;29;20071;-74
2024/01/04 07:53:50;;;;;;;12.27;9.60;;;;;;;16.24;48.78;98149.31;4934778;29;20035;-73
2024/01/04 07:56:16;;;;;;;14.27;7.88;;;;;;;16.71;51.05;98145.91;4935348;29;20055;-76
2024/01/04 07:58:41;;;;;;;12.77;8.43;;;;;;;16.73;49.67;98141.28;4934297;29;20031;-75
2024/01/04 08:01:07;;;;;;;11.80;9.02;;;;;;;16.78;48.33;98138.16;4934107;29;20038;-69
2024/01/04 08:03:32;;;;;;;14.05;9.60;;;;;;;16.71;47.60;98134.53;4934133;29;20110;-69
2024/01/04 08:05:58;;;;;;;17.17;10.23;;;;;;;16.67;46.83;98139.34;4933523;29;20044;-71
2024/01/04 08:08:26;;;;;;;14.90;10.75;;;;;;;16.70;46.80;98133.72;4917924;29;20446;-72
2024/01/04 08:10:52;;;;;;;16.50;10.10;;;;;;;16.74;46.55;98135.00;4902324;29;20039;-71
2024/01/04 08:13:18;;;;;;;15.45;10.32;;;;;;;16.89;46.12;98126.41;4917491;29;20032;-71
2024/01/04 08:15:43;;;;;;;15.95;11.15;;;;;;;16.87;45.78;98131.03;4903101;29;20039;-71
2024/01/04 08:18:09;;;;;;;15.98;11.23;;;;;;;16.97;45.85;98137.75;4938924;29;20039;-71
2024/01/04 08:20:34;;;;;;;9.98;6.40;;;;;;;17.14;49.52;98124.47;4905841;29;20044;-69
2024/01/04 08:23:00;;;;;;;8.50;6.47;;;;;;;17.35;48.75;98123.84;4938341;29;20032;-71
2024/01/04 08:25:26;;;;;;;11.35;7.68;;;;;;;17.39;49.29;98113.75;4920821;29;20153;-70
2024/01/04 08:27:52;;;;;;;13.80;8.27;;;;;;;17.51;49.06;98104.44;4938477;29;20509;-69
2024/01/04 08:30:18;;;;;;;14.30;10.25;;;;;;;17.49;47.87;98101.97;4921626;29;20091;-68
2024/01/04 08:32:43;;;;;;;13.55;10.50;;;;;;;17.51;46.72;98094.69;4938695;29;20030;-69
2024/01/04 08:35:08;;;;;;;16.98;11.40;;;;;;;17.48;45.94;98102.16;4938526;29;20035;-69
2024/01/04 08:37:34;;;;;;;17.73;12.10;;;;;;;17.46;45.26;98104.97;4938962;29;20070;-69
2024/01/04 08:39:59;;;;;;;17.35;12.48;;;;;;;17.42;44.74;98102.88;4921241;29;20059;-69
2024/01/04 08:42:25;;;;;;;20.55;13.27;;;;;;;17.36;44.09;98097.31;4921338;29;20030;-70
2024/01/04 08:44:51;;;;;;;20.70;13.57;;;;;;;17.45;43.64;98099.88;4938462;29;20044;-69
2024/01/04 08:47:16;;;;;;;20.83;14.40;;;;;;;17.43;43.22;98092.13;4938282;29;20488;-72
2024/01/04 08:49:42;;;;;;;13.60;8.88;;;;;;;17.82;49.47;98093.78;4938403;29;20040;-69
2024/01/04 08:52:07;;;;;;;11.98;8.40;;;;;;;18.29;48.20;98080.47;4938176;29;20024;-69
2024/01/04 08:54:33;;;;;;;23.67;12.68;;;;;;;18.48;48.02;98073.81;4936855;29;20115;-68
2024/01/04 08:56:58;;;;;;;29.17;14.15;;;;;;;18.37;49.54;98075.91;4938067;29;20483;-68
2024/01/04 08:59:24;;;;;;;19.30;10.93;;;;;;;18.37;48.02;98069.81;4920903;29;20038;-68
2024/01/04 09:01:49;;;;;;;21.13;10.77;;;;;;;18.32;47.88;98070.34;4921126;29;20048;-70
2024/01/04 09:04:15;;;;;;;17.75;10.18;;;;;;;18.25;48.87;98069.47;4937766;29;20031;-71
2024/01/04 09:06:40;;;;;;;16.17;10.38;;;;;;;18.17;48.09;98069.53;4921126;29;20024;-70
2024/01/04 09:09:07;;;;;;;18.02;10.02;;;;;;;18.08;47.90;98058.25;4938158;29;20375;-71
2024/01/04 09:11:38;;;;;;;22.48;10.52;;;;;;;18.06;47.76;98061.06;4936546;29;20040;-72
2024/01/04 09:14:07;;;;;;;19.10;10.93;;;;;;;18.13;47.32;98063.81;4921651;29;20031;-67
2024/01/04 09:16:34;;;;;;;23.77;10.57;;;;;;;18.07;47.38;98060.09;4937404;29;20487;-69
2024/01/04 09:19:00;;;;;;;23.73;10.98;;;;;;;18.05;47.11;98063.88;4937678;29;20152;-69
2024/01/04 09:21:26;;;;;;;18.45;10.95;;;;;;;18.25;47.51;98072.09;4936546;29;20024;-67
2024/01/04 09:23:52;;;;;;;20.73;10.98;;;;;;;18.43;47.89;98074.38;4920130;29;20499;-68
2024/01/04 09:26:18;;;;;;;20.55;10.25;;;;;;;18.44;47.12;98076.81;4920796;29;20032;-68
2024/01/04 09:28:44;;;;;;;17.30;9.85;;;;;;;18.43;46.75;98063.78;4936809;29;20038;-72
2024/01/04 09:31:09;;;;;;;16.67;10.27;;;;;;;18.48;46.37;98069.34;4936679;29;20028;-69
2024/01/04 09:33:35;;;;;;;19.05;10.20;;;;;;;18.32;45.77;98058.97;4904248;29;20039;-70
2024/01/04 09:36:00;;;;;;;14.70;9.43;;;;;;;18.08;44.99;98045.03;4920609;29;20118;-71
2024/01/04 09:38:27;;;;;;;17.45;10.88;;;;;;;17.82;43.72;98030.44;4937256;29;20040;-70
2024/01/04 09:40:55;;;;;;;23.88;11.25;;;;;;;18.15;41.40;98019.53;4937358;29;20027;-71
2024/01/04 09:43:20;;;;;;;15.68;9.57;;;;;;;18.40;44.74;98020.03;4904362;29;20422;-70
2024/01/04 09:45:46;;;;;;;20.25;11.68;;;;;;;18.92;40.44;98007.63;4936080;29;20040;-70
2024/01/04 09:48:11;;;;;;;21.60;12.27;;;;;;;19.42;38.55;97993.63;4919948;29;20103;-68
2024/01/04 09:50:38;;;;;;;19.50;11.98;;;;;;;19.98;36.93;97993.59;4919987;29;20039;-70
2024/01/04 09:53:04;;;;;;;18.75;12.23;;;;;;;20.19;35.58;97987.41;4920587;29;20039;-71
2024/01/04 09:55:30;;;;;;;18.70;11.25;;;;;;;20.68;34.30;97979.44;4920087;29;20035;-70
2024/01/04 09:57:56;;;;;;;13.88;10.93;;;;;;;21.07;33.38;97983.97;4935804;29;20403;-69
2024/01/04 10:00:22;;;;;;;17.55;11.55;;;;;;;20.65;33.38;97993.09;4935799;29;20031;-69
2024/01/04 10:02:49;;;;;;;18.38;11.32;;;;;;;21.15;32.67;97989.09;4936593;29;20028;-70
2024/01/04 10:05:15;;;;;;;19.33;11.02;;;;;;;21.57;31.79;97980.13;4920388;29;20494;-69
2024/01/04 10:07:48;;;;;;;17.40;10.25;;;;;;;21.46;31.57;97978.91;4936577;29;20036;-70
2024/01/04 10:10:17;;;;;;;17.63;10.95;;;;;;;21.86;31.04;97969.03;4935046;29;20024;-69
2024/01/04 10:12:43;;;;;;;14.25;10.60;;;;;;;22.76;29.66;97954.97;4919522;29;20047;-69
2024/01/04 10:15:11;;;;;;;16.50;11.60;;;;;;;24.15;27.50;97943.28;4919527;29;20037;-70
2024/01/04 10:17:37;;;;;;;17.48;11.32;;;;;;;25.29;26.23;97936.34;4920003;29;20035;-70
2024/01/04 10:20:04;;;;;;;17.38;9.70;;;;;;;25.88;25.72;97924.78;4919624;29;20041;-69
2024/01/04 10:22:29;;;;;;;15.68;9.80;;;;;;;26.55;24.50;97913.50;4935683;29;20486;-70
2024/01/04 10:25:08;;;;;;;17.38;9.93;;;;;;;26.76;24.30;97913.88;4918837;29;20139;-69
2024/01/04 10:27:35;;;;;;;12.52;9.20;;;;;;;26.55;24.40;97916.19;4918984;29;20070;-69
2024/01/04 10:30:05;;;;;;;14.02;9.68;;;;;;;26.45;24.78;97906.09;4935222;29;20562;-69
2024/01/04 10:32:30;;;;;;;15.63;10.23;;;;;;;26.18;25.11;97900.53;4919254;29;20419;-69
2024/01/04 10:35:08;;;;;;;13.27;9.35;;;;;;;25.93;25.32;97893.59;4936443;29;20086;-70
2024/01/04 10:37:34;;;;;;;;;;;;;;;25.71;25.66;97892.63;4919622;29;20111;-68
2024/01/04 10:40:03;;;;;;;13.95;8.98;;;;;;;24.94;26.49;97894.38;4936027;29;20382;-68
2024/01/04 10:42:29;;;;;;;16.20;9.25;;;;;;;24.89;26.98;97895.06;4919710;29;20549;-71
2024/01/04 10:44:55;;;;;;;16.55;10.10;;;;;;;24.65;26.86;97886.19;4934966;29;20098;-70
2024/01/04 10:47:20;;;;;;;14.85;9.77;;;;;;;24.41;27.27;97882.63;4934945;29;20027;-68
2024/01/04 10:49:47;;;;;;;20.40;9.95;;;;;;;24.19;27.73;97884.97;4935171;29;20043;-69
2024/01/04 10:52:17;;;;;;;16.48;9.70;;;;;;;23.94;27.78;97885.09;4934945;29;20032;-69
2024/01/04 10:54:43;;;;;;;18.35;9.40;;;;;;;23.79;28.15;97878.28;4934634;29;20138;-69
2024/01/04 10:57:10;;;;;;;23.13;9.43;;;;;;;23.53;28.22;97874.06;4934745;29;20483;-69
2024/01/04 10:59:35;;;;;;;15.15;9.45;;;;;;;23.29;28.58;97876.56;4935304;29;20031;-70
2024/01/04 11:02:01;;;;;;;18.63;9.07;;;;;;;22.93;28.94;97872.78;4934796;29;20118;-69
2024/01/04 11:04:28;;;;;;;13.32;8.93;;;;;;;22.55;29.32;97871.00;4934592;29;20031;-67
2024/01/04 11:06:53;;;;;;;18.63;9.38;;;;;;;22.31;30.10;97861.13;4935761;29;20537;-69
2024/01/04 11:09:19;;;;;;;16.63;9.10;;;;;;;22.16;30.10;97872.03;4935598;29;20167;-69
2024/01/04 11:11:44;;;;;;;15.82;9.10;;;;;;;21.98;30.58;97852.31;4934227;29;20048;-68
2024/01/04 11:14:10;;;;;;;17.63;9.88;;;;;;;21.43;31.45;97855.34;4918982;29;20038;-68
2024/01/04 11:16:45;;;;;;;16.10;9.95;;;;;;;21.07;32.05;97853.16;4934480;29;20070;-69
2024/01/04 11:19:32;;;;;;;19.00;10.05;;;;;;;21.07;32.35;97856.63;4935566;29;20028;-69
2024/01/04 11:22:16;;;;;;;15.60;9.68;;;;;;;20.97;32.49;97856.25;4918389;29;20038;-68